TAF and METAR

Decoding for American and Canadian METARs and TAFs is not fully implemented.

Could not understand the following METAR

CYZP 011600Z AUTO 33017KT 9SM CLR 01/M05 A3028 RMK SLP257

TAF for Sandspit Airport

TAF CYZP 011238Z 0113/0201 33015G25KT P6SM SCT050 BECMG 0119/0121 01012G22KT RMK FCST BASED ON AUTO OBS. NXT FCST BY 011900Z
Report created 1. apr 14:38

between 1. apr 15:00 - 2. apr 03:00

wind 15 knots from NNW (330°) with gusts up to 25 knots
Sandspit Airport in Canada at 6m

Latest 5 airports